createdAt,value
2017-10-18T00:00:30.209Z,79.83
2017-10-18T00:01:35.981Z,79.90
2017-10-18T00:02:41.765Z,79.91
2017-10-18T00:03:48.109Z,79.84
2017-10-18T00:04:55.385Z,79.74
2017-10-18T00:06:01.135Z,79.71
2017-10-18T00:07:06.709Z,79.76
2017-10-18T00:08:12.496Z,79.98
2017-10-18T00:09:18.267Z,79.91
2017-10-18T00:10:24.801Z,79.87
2017-10-18T00:11:30.566Z,79.81
2017-10-18T00:12:37.105Z,79.94
2017-10-18T00:13:42.897Z,79.83
2017-10-18T00:14:48.479Z,79.82
2017-10-18T00:15:53.931Z,79.56
2017-10-18T00:16:59.701Z,79.38
2017-10-18T00:18:05.481Z,79.44
2017-10-18T00:19:11.318Z,79.42
2017-10-18T00:20:16.893Z,79.44
2017-10-18T00:21:22.652Z,79.44
2017-10-18T00:22:29.184Z,79.50
2017-10-18T00:23:34.747Z,79.58
2017-10-18T00:24:40.519Z,79.78
2017-10-18T00:25:46.281Z,79.60
2017-10-18T00:26:52.045Z,79.51
2017-10-18T00:27:59.145Z,79.40
2017-10-18T00:29:05.675Z,79.38
2017-10-18T00:30:11.471Z,79.48
2017-10-18T00:31:17.251Z,79.66
2017-10-18T00:32:23.017Z,79.90
2017-10-18T00:33:28.593Z,80.04
2017-10-18T00:34:34.361Z,80.09
2017-10-18T00:35:40.226Z,80.21
2017-10-18T00:36:45.988Z,80.28
2017-10-18T00:37:51.761Z,80.29
2017-10-18T00:38:57.525Z,80.26
2017-10-18T00:40:03.334Z,80.35
2017-10-18T00:41:09.893Z,80.24
2017-10-18T00:42:16.421Z,80.20
2017-10-18T00:43:22.192Z,80.19
2017-10-18T00:44:28.708Z,80.22
2017-10-18T00:45:34.481Z,80.25
2017-10-18T00:46:41.068Z,80.32
2017-10-18T00:47:46.637Z,80.37
2017-10-18T00:48:52.404Z,80.45
2017-10-18T00:49:58.182Z,80.37
2017-10-18T00:51:04.546Z,80.21
2017-10-18T00:52:10.334Z,80.12
2017-10-18T00:53:16.091Z,80.08
2017-10-18T00:54:22.624Z,80.07
2017-10-18T00:55:28.431Z,80.03
2017-10-18T00:56:34.181Z,80.05
2017-10-18T00:57:40.715Z,80.07
2017-10-18T00:58:47.292Z,80.03
2017-10-18T00:59:52.865Z,79.96
2017-10-18T01:00:58.627Z,79.91
2017-10-18T01:02:05.165Z,79.95
2017-10-18T01:03:10.969Z,80.04
2017-10-18T01:04:16.747Z,80.36
2017-10-18T01:05:22.518Z,80.46
2017-10-18T01:06:28.276Z,80.63
2017-10-18T01:07:34.800Z,80.97
2017-10-18T01:08:40.601Z,80.93
2017-10-18T01:09:46.347Z,80.86
2017-10-18T01:10:52.123Z,80.87
2017-10-18T01:11:57.888Z,80.72
2017-10-18T01:13:03.777Z,80.61
2017-10-18T01:14:09.555Z,80.59
2017-10-18T01:15:15.310Z,80.43
2017-10-18T01:16:21.068Z,80.36
2017-10-18T01:17:27.412Z,80.18
2017-10-18T01:18:33.176Z,80.17
2017-10-18T01:19:38.983Z,80.37
2017-10-18T01:20:44.756Z,80.37
2017-10-18T01:21:50.676Z,80.26
2017-10-18T01:22:57.209Z,80.23
2017-10-18T01:24:02.971Z,80.26
2017-10-18T01:25:08.794Z,80.40
2017-10-18T01:26:14.214Z,80.45
2017-10-18T01:27:20.532Z,80.45
2017-10-18T01:28:27.058Z,80.51
2017-10-18T01:29:32.812Z,80.68
2017-10-18T01:30:38.604Z,80.80
2017-10-18T01:31:44.365Z,81.10
2017-10-18T01:32:50.143Z,81.28
2017-10-18T01:33:55.891Z,81.29
2017-10-18T01:35:02.425Z,81.28
2017-10-18T01:36:08.233Z,81.06
2017-10-18T01:37:13.986Z,80.86
2017-10-18T01:38:19.748Z,80.71
2017-10-18T01:39:25.516Z,80.61
2017-10-18T01:40:31.274Z,80.57
2017-10-18T01:41:37.820Z,80.57
2017-10-18T01:42:43.593Z,80.53
2017-10-18T01:43:49.348Z,80.35
2017-10-18T01:44:55.130Z,80.20
2017-10-18T01:46:00.892Z,80.29
2017-10-18T01:47:07.447Z,79.98
2017-10-18T01:48:13.992Z,80.16
2017-10-18T01:49:19.765Z,80.86
2017-10-18T01:50:26.288Z,81.27
2017-10-18T01:51:32.386Z,81.20
2017-10-18T01:52:38.173Z,81.14
2017-10-18T01:53:43.943Z,81.09
2017-10-18T01:54:50.464Z,81.16
2017-10-18T01:55:56.228Z,81.56
2017-10-18T01:57:01.997Z,82.14
2017-10-18T01:58:08.549Z,82.58
2017-10-18T01:59:15.085Z,82.84
2017-10-18T02:00:21.612Z,82.77
2017-10-18T02:01:27.373Z,82.44
2017-10-18T02:02:33.141Z,82.25
2017-10-18T02:03:38.926Z,82.13
2017-10-18T02:04:44.679Z,82.00
2017-10-18T02:05:50.450Z,81.98
2017-10-18T02:06:56.205Z,81.87
2017-10-18T02:08:01.984Z,81.72
2017-10-18T02:09:07.760Z,81.48
2017-10-18T02:10:13.539Z,81.44
2017-10-18T02:11:19.292Z,81.45
2017-10-18T02:12:25.650Z,81.50
2017-10-18T02:13:31.436Z,81.46
2017-10-18T02:14:37.228Z,81.27
2017-10-18T02:15:43.751Z,81.10
2017-10-18T02:16:49.535Z,81.20
2017-10-18T02:17:56.062Z,81.18
2017-10-18T02:19:01.839Z,81.50
2017-10-18T02:20:08.394Z,81.52
2017-10-18T02:21:14.921Z,81.21
2017-10-18T02:22:20.689Z,80.81
2017-10-18T02:23:27.219Z,80.32
2017-10-18T02:24:32.980Z,80.21
2017-10-18T02:25:38.772Z,80.08
2017-10-18T02:26:44.547Z,80.22
2017-10-18T02:27:50.303Z,80.75
2017-10-18T02:28:56.847Z,80.80
2017-10-18T02:30:02.626Z,80.81
2017-10-18T02:31:09.192Z,80.69
2017-10-18T02:32:15.717Z,80.60
2017-10-18T02:33:21.483Z,80.56
2017-10-18T02:34:28.014Z,80.46
2017-10-18T02:35:33.792Z,80.61
2017-10-18T02:36:40.151Z,80.78
2017-10-18T02:37:45.915Z,81.09
2017-10-18T02:38:51.685Z,81.37
2017-10-18T02:39:57.544Z,81.66
2017-10-18T02:41:03.331Z,82.03
2017-10-18T02:42:09.121Z,82.16
2017-10-18T02:43:16.045Z,82.20
2017-10-18T02:44:21.809Z,82.19
2017-10-18T02:45:27.588Z,82.25
2017-10-18T02:46:34.129Z,82.42
2017-10-18T02:47:39.926Z,82.51
2017-10-18T02:48:45.336Z,82.66
2017-10-18T02:49:51.864Z,82.73
2017-10-18T02:50:57.646Z,82.69
2017-10-18T02:52:04.169Z,82.62
2017-10-18T02:53:09.967Z,82.61
2017-10-18T02:54:15.736Z,82.46
2017-10-18T02:55:21.499Z,82.29
2017-10-18T02:56:27.269Z,82.18
2017-10-18T02:57:33.790Z,82.00
2017-10-18T02:58:39.572Z,82.29
2017-10-18T02:59:45.925Z,82.59
2017-10-18T03:00:51.948Z,82.92
2017-10-18T03:01:57.714Z,82.81
2017-10-18T03:03:04.233Z,82.56
2017-10-18T03:04:10.018Z,82.29
2017-10-18T03:05:16.545Z,81.90
2017-10-18T03:06:22.309Z,81.71
2017-10-18T03:08:46.780Z,81.50
2017-10-18T03:09:54.073Z,82.09
2017-10-18T03:11:00.612Z,82.62
2017-10-18T03:12:07.028Z,82.90
2017-10-18T03:13:12.780Z,83.04
2017-10-18T03:15:22.680Z,83.13
2017-10-18T03:16:29.219Z,83.26
2017-10-18T03:17:34.905Z,83.26
2017-10-18T03:18:40.666Z,83.19
2017-10-18T03:19:46.439Z,83.06
2017-10-18T03:20:52.215Z,82.94
2017-10-18T03:21:58.733Z,82.97
2017-10-18T03:23:04.305Z,83.03
2017-10-18T03:24:10.837Z,83.13
2017-10-18T03:25:16.666Z,83.11
2017-10-18T03:26:22.454Z,83.07
2017-10-18T03:27:28.444Z,83.22
2017-10-18T03:28:33.833Z,83.64
2017-10-18T03:29:39.664Z,83.85
2017-10-18T03:30:45.849Z,84.00
2017-10-18T03:31:51.638Z,84.11
2017-10-18T03:32:57.057Z,84.16
2017-10-18T03:34:02.833Z,84.31
2017-10-18T03:35:09.425Z,84.42
2017-10-18T03:36:15.188Z,84.43
2017-10-18T03:37:20.975Z,84.38
2017-10-18T03:38:27.509Z,84.45
2017-10-18T03:39:33.264Z,84.23
2017-10-18T03:40:38.839Z,84.10
2017-10-18T03:41:44.593Z,83.91
2017-10-18T03:42:50.380Z,83.44
2017-10-18T03:43:57.645Z,83.20
2017-10-18T03:45:03.404Z,83.04
2017-10-18T03:46:09.160Z,82.91
2017-10-18T03:47:15.686Z,82.89
2017-10-18T03:48:21.464Z,82.78
2017-10-18T03:49:27.995Z,82.72
2017-10-18T03:50:33.766Z,82.35
2017-10-18T03:51:40.307Z,81.91
2017-10-18T03:52:46.069Z,81.72
2017-10-18T03:53:52.628Z,81.53
2017-10-18T03:54:59.161Z,81.45
2017-10-18T03:56:04.918Z,81.71
2017-10-18T03:57:10.712Z,81.92
2017-10-18T03:58:16.550Z,82.15
2017-10-18T03:59:22.328Z,82.38
2017-10-18T04:00:28.102Z,82.72
2017-10-18T04:01:33.871Z,82.72
2017-10-18T04:02:39.633Z,82.94
2017-10-18T04:03:45.405Z,83.04
2017-10-18T04:04:51.957Z,82.97
2017-10-18T04:05:57.715Z,82.99
2017-10-18T04:07:03.481Z,82.83
2017-10-18T04:08:10.008Z,82.71
2017-10-18T04:09:15.778Z,82.85
2017-10-18T04:10:22.165Z,82.81
2017-10-18T04:11:27.940Z,82.98
2017-10-18T04:12:33.697Z,82.94
2017-10-18T04:13:40.238Z,82.99
2017-10-18T04:14:45.995Z,83.16
2017-10-18T04:15:51.788Z,83.35
2017-10-18T04:16:57.553Z,83.56
2017-10-18T04:18:03.424Z,83.78
2017-10-18T04:19:09.188Z,83.63
2017-10-18T04:20:15.719Z,83.52
2017-10-18T04:21:21.617Z,83.50
2017-10-18T04:22:27.393Z,83.59
2017-10-18T04:23:33.241Z,83.68
2017-10-18T04:24:39.067Z,83.69
2017-10-18T04:25:44.826Z,83.49
2017-10-18T04:26:50.624Z,83.38
2017-10-18T04:27:56.385Z,83.40
2017-10-18T04:29:02.160Z,83.39
2017-10-18T04:30:08.202Z,83.38
2017-10-18T04:31:13.969Z,83.39
2017-10-18T04:32:20.520Z,83.49
2017-10-18T04:33:26.280Z,83.74
2017-10-18T04:34:32.812Z,83.80
2017-10-18T04:35:40.092Z,83.91
2017-10-18T04:36:45.873Z,84.21
2017-10-18T04:37:51.673Z,84.28
2017-10-18T04:38:58.200Z,84.55
2017-10-18T04:40:03.974Z,84.68
2017-10-18T04:41:09.739Z,84.85
2017-10-18T04:42:16.088Z,85.04
2017-10-18T04:43:22.648Z,85.42
2017-10-18T04:44:29.184Z,85.57
2017-10-18T04:45:34.981Z,85.65
2017-10-18T04:46:40.740Z,85.62
2017-10-18T04:47:46.325Z,85.44
2017-10-18T04:48:52.888Z,85.34
2017-10-18T04:49:59.417Z,85.19
2017-10-18T04:51:05.193Z,85.14
2017-10-18T04:52:11.722Z,84.92
2017-10-18T04:53:17.490Z,84.70
2017-10-18T04:54:24.047Z,84.60
2017-10-18T04:55:29.808Z,84.49
2017-10-18T04:56:36.342Z,84.51
2017-10-18T04:57:42.098Z,84.77
2017-10-18T04:58:48.633Z,84.97
2017-10-18T04:59:55.197Z,85.27
2017-10-18T05:01:00.952Z,85.51
2017-10-18T05:02:06.729Z,85.68
2017-10-18T05:03:12.496Z,85.64
2017-10-18T05:04:18.064Z,85.70
2017-10-18T05:05:23.904Z,85.92
2017-10-18T05:06:29.685Z,85.81
2017-10-18T05:07:35.455Z,85.91
2017-10-18T05:08:41.233Z,86.02
2017-10-18T05:09:47.273Z,86.11
2017-10-18T05:10:53.072Z,85.99
2017-10-18T05:11:58.856Z,86.02
2017-10-18T05:13:04.653Z,86.07
2017-10-18T05:14:10.429Z,85.99
2017-10-18T05:15:16.186Z,86.06
2017-10-18T05:16:21.985Z,86.06
2017-10-18T05:17:27.748Z,86.17
2017-10-18T05:18:33.526Z,86.15
2017-10-18T05:19:39.281Z,86.17
2017-10-18T05:20:45.468Z,86.12
2017-10-18T05:21:50.396Z,86.10
2017-10-18T05:22:56.158Z,85.98
2017-10-18T05:24:01.916Z,85.89
2017-10-18T05:25:07.708Z,85.87
2017-10-18T05:26:13.293Z,85.79
2017-10-18T05:27:19.088Z,86.13
2017-10-18T05:28:24.846Z,86.63
2017-10-18T05:29:30.616Z,86.83
2017-10-18T05:30:36.374Z,87.16
2017-10-18T05:31:42.704Z,87.51
2017-10-18T05:32:48.501Z,87.61
2017-10-18T05:33:54.285Z,87.41
2017-10-18T05:35:00.051Z,87.30
2017-10-18T05:36:06.589Z,87.07
2017-10-18T05:37:12.391Z,86.70
2017-10-18T05:38:18.172Z,86.68
2017-10-18T05:39:23.976Z,86.62
2017-10-18T05:40:29.732Z,86.66
2017-10-18T05:41:35.508Z,86.59
2017-10-18T05:42:41.277Z,86.48
2017-10-18T05:43:47.828Z,86.44
2017-10-18T05:44:54.364Z,86.37
2017-10-18T05:46:00.141Z,86.24
2017-10-18T05:47:06.518Z,86.16
2017-10-18T05:48:12.338Z,86.10
2017-10-18T05:49:18.884Z,86.00
2017-10-18T05:50:24.645Z,85.99
2017-10-18T05:51:31.008Z,85.81
2017-10-18T05:52:36.798Z,85.65
2017-10-18T05:53:42.564Z,85.68
2017-10-18T05:54:48.391Z,85.66
2017-10-18T05:55:53.954Z,85.56
2017-10-18T05:56:59.725Z,85.36
2017-10-18T05:58:06.336Z,85.23
2017-10-18T05:59:12.098Z,85.09
2017-10-18T06:00:17.876Z,84.91
2017-10-18T06:01:23.650Z,84.70
2017-10-18T06:02:29.416Z,84.50
2017-10-18T06:03:35.180Z,84.38
2017-10-18T06:04:41.700Z,84.32
2017-10-18T06:05:47.298Z,84.20
2017-10-18T06:06:52.876Z,84.04
2017-10-18T06:07:58.647Z,83.80
2017-10-18T06:09:04.042Z,83.55
2017-10-18T06:10:09.487Z,83.38
2017-10-18T06:11:15.263Z,83.20
2017-10-18T06:12:21.044Z,83.11
2017-10-18T06:13:26.971Z,82.99
2017-10-18T06:14:32.725Z,82.97
2017-10-18T06:15:38.220Z,81.94
2017-10-18T06:16:44.799Z,82.04
2017-10-18T06:17:50.395Z,82.37
2017-10-18T06:18:55.974Z,82.48
2017-10-18T06:20:02.230Z,82.46
2017-10-18T06:21:09.241Z,82.54
2017-10-18T06:22:15.045Z,82.66
2017-10-18T06:23:20.290Z,82.61
2017-10-18T06:24:25.861Z,82.52
2017-10-18T06:25:32.517Z,82.52
2017-10-18T06:26:38.351Z,82.41
2017-10-18T06:27:44.468Z,82.28
2017-10-18T06:28:50.366Z,82.09
2017-10-18T06:29:56.991Z,81.80
2017-10-18T06:31:02.819Z,81.76
2017-10-18T06:32:08.456Z,81.62
2017-10-18T06:33:14.267Z,81.36
2017-10-18T06:34:20.860Z,81.10
2017-10-18T06:35:26.846Z,80.93
2017-10-18T06:36:33.191Z,80.79
2017-10-18T06:37:38.949Z,80.67
2017-10-18T06:38:44.741Z,80.48
2017-10-18T06:39:50.579Z,80.60
2017-10-18T06:40:56.358Z,80.53
2017-10-18T06:42:02.151Z,80.53
2017-10-18T06:43:08.723Z,80.76
2017-10-18T06:44:14.511Z,80.76
2017-10-18T06:45:20.318Z,80.83
2017-10-18T06:46:26.110Z,80.90
2017-10-18T06:47:31.880Z,80.69
2017-10-18T06:48:38.446Z,80.68
2017-10-18T06:49:45.025Z,80.71
2017-10-18T06:50:50.776Z,80.63
2017-10-18T06:51:56.536Z,80.61
2017-10-18T06:53:02.295Z,80.74
2017-10-18T06:54:08.060Z,81.05
2017-10-18T06:55:14.616Z,81.74
2017-10-18T06:56:20.368Z,82.08
2017-10-18T06:57:26.896Z,82.01
2017-10-18T06:58:32.661Z,81.72
2017-10-18T06:59:39.188Z,81.46
2017-10-18T07:00:44.978Z,81.23
2017-10-18T07:01:51.504Z,81.04
2017-10-18T07:02:57.280Z,80.78
2017-10-18T07:04:03.812Z,80.76
2017-10-18T07:05:09.572Z,80.76
2017-10-18T07:06:16.144Z,81.11
2017-10-18T07:07:22.675Z,81.42
2017-10-18T07:08:28.437Z,81.34
2017-10-18T07:09:34.985Z,81.29
2017-10-18T07:10:40.741Z,81.23
2017-10-18T07:11:47.299Z,80.96
2017-10-18T07:12:53.848Z,80.72
2017-10-18T07:13:59.640Z,80.46
2017-10-18T07:15:05.402Z,80.03
2017-10-18T07:16:11.178Z,79.49
2017-10-18T07:17:17.734Z,78.79
2017-10-18T07:18:24.271Z,78.22
2017-10-18T07:19:30.036Z,77.66
2017-10-18T07:20:36.577Z,77.19
2017-10-18T07:21:42.334Z,76.86
2017-10-18T07:22:48.131Z,76.55
2017-10-18T07:23:53.892Z,76.43
2017-10-18T07:24:59.671Z,76.83
2017-10-18T07:26:06.196Z,77.29
2017-10-18T07:27:11.963Z,77.66
2017-10-18T07:28:17.770Z,77.20
2017-10-18T07:29:23.537Z,76.45
2017-10-18T07:30:29.311Z,76.06
2017-10-18T07:31:35.987Z,75.94
2017-10-18T07:32:41.931Z,75.88
2017-10-18T07:33:47.745Z,75.79
2017-10-18T07:34:53.503Z,75.70
2017-10-18T07:36:00.077Z,75.51
2017-10-18T07:37:06.075Z,75.48
2017-10-18T07:38:12.040Z,75.37
2017-10-18T07:39:18.469Z,75.26
2017-10-18T07:40:24.779Z,75.28
2017-10-18T07:41:30.912Z,75.22
2017-10-18T07:42:38.516Z,74.84
2017-10-18T07:43:44.567Z,74.61
2017-10-18T07:44:53.077Z,74.45
2017-10-18T07:45:59.104Z,74.54
2017-10-18T07:47:06.147Z,74.29
2017-10-18T07:48:13.012Z,74.01
2017-10-18T07:49:19.895Z,73.56
2017-10-18T07:50:26.170Z,73.14
2017-10-18T07:51:32.338Z,72.71
2017-10-18T07:52:38.593Z,72.48
2017-10-18T07:53:44.702Z,72.40
2017-10-18T07:54:51.603Z,71.94
2017-10-18T07:55:58.809Z,71.53
2017-10-18T07:57:04.692Z,71.78
2017-10-18T07:58:10.443Z,72.28
2017-10-18T07:59:17.057Z,72.15
2017-10-18T08:00:22.871Z,71.92
2017-10-18T08:01:28.770Z,71.82
2017-10-18T08:02:36.139Z,71.32
2017-10-18T08:03:41.969Z,70.81
2017-10-18T08:04:47.997Z,69.95
2017-10-18T08:05:53.900Z,69.69
2017-10-18T08:07:00.453Z,69.19
2017-10-18T08:08:06.712Z,68.95
2017-10-18T08:09:12.958Z,69.04
2017-10-18T08:10:18.722Z,69.03
2017-10-18T08:11:25.253Z,68.73
2017-10-18T08:12:30.798Z,68.31
2017-10-18T08:13:37.328Z,67.73
2017-10-18T08:14:43.096Z,67.29
2017-10-18T08:15:48.917Z,66.90
2017-10-18T08:16:54.687Z,66.38
2017-10-18T08:18:01.265Z,65.83
2017-10-18T08:19:06.912Z,65.16
2017-10-18T08:20:12.713Z,64.54
2017-10-18T08:21:18.476Z,63.32
2017-10-18T08:22:24.820Z,62.75
2017-10-18T08:23:30.621Z,62.51
2017-10-18T08:24:36.388Z,62.15
2017-10-18T08:25:41.482Z,61.97
2017-10-18T08:26:47.240Z,61.98
2017-10-18T08:27:53.012Z,62.11
2017-10-18T08:28:58.893Z,62.18
2017-10-18T08:30:04.816Z,62.40
2017-10-18T08:31:11.456Z,62.26
2017-10-18T08:32:17.809Z,61.78
2017-10-18T08:33:24.489Z,62.03
2017-10-18T08:34:31.216Z,62.09
2017-10-18T08:35:37.070Z,62.41
2017-10-18T08:36:43.110Z,62.20
2017-10-18T08:37:49.836Z,62.55
2017-10-18T08:38:55.773Z,62.80
2017-10-18T08:40:01.835Z,62.90
2017-10-18T08:41:07.372Z,62.16
2017-10-18T08:42:13.315Z,61.94
2017-10-18T08:43:19.369Z,61.44
2017-10-18T08:44:25.387Z,61.09
2017-10-18T08:45:30.987Z,60.35
2017-10-18T08:46:37.483Z,59.61
2017-10-18T08:47:43.663Z,59.09
2017-10-18T08:48:49.434Z,58.28
2017-10-18T08:49:55.188Z,57.76
2017-10-18T08:51:00.637Z,57.36
2017-10-18T08:52:07.167Z,57.18
2017-10-18T08:53:12.921Z,57.08
2017-10-18T08:54:18.697Z,57.71
2017-10-18T08:55:25.361Z,56.94
2017-10-18T08:56:31.924Z,56.54
2017-10-18T08:57:38.472Z,56.65
2017-10-18T08:58:45.053Z,56.58
2017-10-18T08:59:50.473Z,56.63
2017-10-18T09:00:56.468Z,56.83
2017-10-18T09:02:01.915Z,57.18
2017-10-18T09:03:07.114Z,58.17
2017-10-18T09:04:12.889Z,58.76
2017-10-18T09:05:18.457Z,59.52
2017-10-18T09:06:25.046Z,59.25
2017-10-18T09:07:30.875Z,60.93
2017-10-18T09:08:37.389Z,60.93
2017-10-18T09:09:42.962Z,60.93
2017-10-18T09:10:49.313Z,60.37
2017-10-18T09:11:55.851Z,59.50
2017-10-18T09:13:01.645Z,59.00
2017-10-18T09:14:07.243Z,58.34
2017-10-18T09:15:12.991Z,57.84
2017-10-18T09:16:19.535Z,56.97
2017-10-18T09:17:25.291Z,56.34
2017-10-18T09:18:31.076Z,55.76
2017-10-18T09:19:36.838Z,55.39
2017-10-18T09:20:42.614Z,55.22
2017-10-18T09:21:48.368Z,55.04
2017-10-18T09:22:54.902Z,54.54
2017-10-18T09:24:01.091Z,53.96
2017-10-18T09:25:07.613Z,53.17
2017-10-18T09:26:14.144Z,52.97
2017-10-18T09:27:19.913Z,52.46
2017-10-18T09:28:25.678Z,51.84
2017-10-18T09:29:32.228Z,51.37
2017-10-18T09:30:37.985Z,51.44
2017-10-18T09:31:44.528Z,51.22
2017-10-18T09:32:50.287Z,52.26
2017-10-18T09:33:56.074Z,53.10
2017-10-18T09:35:01.856Z,53.05
2017-10-18T09:36:07.624Z,52.56
2017-10-18T09:37:13.396Z,52.77
2017-10-18T09:38:19.219Z,53.68
2017-10-18T09:39:24.726Z,53.63
2017-10-18T09:40:31.445Z,53.21
2017-10-18T09:41:37.149Z,53.71
2017-10-18T09:42:43.069Z,53.07
2017-10-18T09:43:49.846Z,52.82
2017-10-18T09:44:55.790Z,53.26
2017-10-18T09:46:02.421Z,53.15
2017-10-18T09:47:08.123Z,53.57
2017-10-18T09:48:13.931Z,52.73
2017-10-18T09:49:19.877Z,52.37
2017-10-18T09:50:26.547Z,51.63
2017-10-18T09:51:32.769Z,50.79
2017-10-18T09:52:39.380Z,50.44
2017-10-18T09:53:45.236Z,50.12
2017-10-18T09:54:51.041Z,49.85
2017-10-18T09:55:57.600Z,49.90
2017-10-18T09:57:04.049Z,49.74
2017-10-18T09:58:09.891Z,49.51
2017-10-18T09:59:16.232Z,49.51
2017-10-18T10:00:22.801Z,49.57
2017-10-18T10:01:28.691Z,49.69
2017-10-18T10:02:34.616Z,49.79
2017-10-18T10:03:41.168Z,50.01
2017-10-18T10:04:47.711Z,50.44
2017-10-18T10:05:54.268Z,50.39
2017-10-18T10:07:00.260Z,50.39
2017-10-18T10:08:06.213Z,50.57
2017-10-18T10:09:12.001Z,50.65
2017-10-18T10:10:17.773Z,51.39
2017-10-18T10:11:25.865Z,51.56
2017-10-18T10:12:32.448Z,51.87
2017-10-18T10:13:38.394Z,52.75
2017-10-18T10:14:44.435Z,52.99
2017-10-18T10:15:50.961Z,52.72
2017-10-18T10:16:56.776Z,52.01
2017-10-18T10:18:02.559Z,51.89
2017-10-18T10:19:08.966Z,52.20
2017-10-18T10:20:14.788Z,52.33
2017-10-18T10:21:20.736Z,52.78
2017-10-18T10:22:26.632Z,52.69
2017-10-18T10:23:33.278Z,52.31
2017-10-18T10:24:39.132Z,51.74
2017-10-18T10:25:45.030Z,51.81
2017-10-18T10:26:51.044Z,51.92
2017-10-18T10:27:57.024Z,52.48
2017-10-18T10:29:02.931Z,52.58
2017-10-18T10:30:09.874Z,52.86
2017-10-18T10:31:15.767Z,53.16
2017-10-18T10:32:22.343Z,53.30
2017-10-18T10:33:28.278Z,53.27
2017-10-18T10:34:34.179Z,53.13
2017-10-18T10:35:40.065Z,53.17
2017-10-18T10:36:46.946Z,53.51
2017-10-18T10:37:52.976Z,53.63
2017-10-18T10:38:59.577Z,53.92
2017-10-18T10:40:05.347Z,54.58
2017-10-18T10:41:11.137Z,54.87
2017-10-18T10:42:16.936Z,55.15
2017-10-18T10:43:22.773Z,56.16
2017-10-18T10:44:28.535Z,56.04
2017-10-18T10:45:35.112Z,56.20
2017-10-18T10:46:41.998Z,56.97
2017-10-18T10:47:48.217Z,58.10
2017-10-18T10:48:54.763Z,58.37
2017-10-18T10:50:00.599Z,58.07
2017-10-18T10:51:06.356Z,57.65
2017-10-18T10:52:12.177Z,57.41
2017-10-18T10:53:18.074Z,57.45
2017-10-18T10:54:23.921Z,57.42
2017-10-18T10:55:29.688Z,57.72
2017-10-18T10:56:35.509Z,57.73
2017-10-18T10:57:41.316Z,57.90
2017-10-18T10:58:47.848Z,58.05
2017-10-18T10:59:53.632Z,58.24
2017-10-18T11:01:00.242Z,59.08
2017-10-18T11:02:05.992Z,59.27
2017-10-18T11:03:11.820Z,59.14
2017-10-18T11:04:17.606Z,59.37
2017-10-18T11:05:23.372Z,59.52
2017-10-18T11:06:29.921Z,60.55
2017-10-18T11:07:36.454Z,60.65
2017-10-18T11:08:42.320Z,60.86
2017-10-18T11:09:48.912Z,61.07
2017-10-18T11:10:54.739Z,60.84
2017-10-18T11:12:00.529Z,61.09
2017-10-18T11:13:06.288Z,60.86
2017-10-18T11:14:12.077Z,60.71
2017-10-18T11:15:17.866Z,60.61
2017-10-18T11:16:23.645Z,60.72
2017-10-18T11:17:30.192Z,60.78
2017-10-18T11:18:36.717Z,60.83
2017-10-18T11:19:42.530Z,61.46
2017-10-18T11:20:48.295Z,61.48
2017-10-18T11:21:54.078Z,61.32
2017-10-18T11:23:00.653Z,61.52
2017-10-18T11:24:06.104Z,61.59
2017-10-18T11:25:11.708Z,61.81
2017-10-18T11:26:18.250Z,62.29
2017-10-18T11:27:24.013Z,62.35
2017-10-18T11:28:30.565Z,62.27
2017-10-18T11:29:37.097Z,62.48
2017-10-18T11:30:42.885Z,62.15
2017-10-18T11:31:49.417Z,61.90
2017-10-18T11:32:55.286Z,62.06
2017-10-18T11:34:01.070Z,62.34
2017-10-18T11:35:06.894Z,61.82
2017-10-18T11:36:12.698Z,61.52
2017-10-18T11:37:19.227Z,61.66
2017-10-18T11:38:24.996Z,61.56
2017-10-18T11:39:30.790Z,61.60
2017-10-18T11:40:36.560Z,61.35
2017-10-18T11:41:42.349Z,61.63
2017-10-18T11:42:48.118Z,61.86
2017-10-18T11:43:54.225Z,61.89
2017-10-18T11:45:00.762Z,62.15
2017-10-18T11:46:06.537Z,62.23
2017-10-18T11:47:13.264Z,62.04
2017-10-18T11:48:19.148Z,62.31
2017-10-18T11:49:25.689Z,62.19
2017-10-18T11:50:32.257Z,61.72
2017-10-18T11:51:38.796Z,61.56
2017-10-18T11:52:44.587Z,61.36
2017-10-18T11:53:50.526Z,61.90
2017-10-18T11:54:56.409Z,61.58
2017-10-18T11:56:02.181Z,61.11
2017-10-18T11:57:08.072Z,61.35
2017-10-18T11:58:13.861Z,61.10
2017-10-18T11:59:19.440Z,61.11
2017-10-18T12:00:25.387Z,61.50
2017-10-18T12:01:31.196Z,62.24
2017-10-18T12:02:37.728Z,62.85
2017-10-18T12:03:43.522Z,62.21
2017-10-18T12:04:49.125Z,62.00
2017-10-18T12:05:54.906Z,62.11
2017-10-18T12:07:00.669Z,62.75
2017-10-18T12:08:06.500Z,62.68
2017-10-18T12:09:12.337Z,62.28
2017-10-18T12:10:18.204Z,61.71
2017-10-18T12:11:24.072Z,62.13
2017-10-18T12:12:29.848Z,61.76
2017-10-18T12:13:36.432Z,61.54
2017-10-18T12:14:42.276Z,61.38
2017-10-18T12:15:48.119Z,61.69
2017-10-18T12:16:54.836Z,61.56
2017-10-18T12:18:01.692Z,61.64
2017-10-18T12:19:08.270Z,62.49
2017-10-18T12:20:14.112Z,62.55
2017-10-18T12:21:19.940Z,62.34
2017-10-18T12:22:25.824Z,62.02
2017-10-18T12:23:32.432Z,62.10
2017-10-18T12:24:38.216Z,62.65
2017-10-18T12:25:44.772Z,62.74
2017-10-18T12:26:51.314Z,62.72
2017-10-18T12:27:57.093Z,62.83
2017-10-18T12:29:02.862Z,62.45
2017-10-18T12:30:08.658Z,62.23
2017-10-18T12:31:15.258Z,61.87
2017-10-18T12:32:21.107Z,61.80
2017-10-18T12:33:26.899Z,61.30
2017-10-18T12:34:33.469Z,61.73
2017-10-18T12:35:40.041Z,61.64
2017-10-18T12:36:46.601Z,61.93
2017-10-18T12:37:53.325Z,61.33
2017-10-18T12:38:59.108Z,61.47
2017-10-18T12:40:05.058Z,61.40
2017-10-18T12:41:11.010Z,61.98
2017-10-18T12:42:17.653Z,62.09
2017-10-18T12:43:24.244Z,62.10
2017-10-18T12:44:30.122Z,62.10
2017-10-18T12:45:35.888Z,61.92
2017-10-18T12:46:41.652Z,62.01
2017-10-18T12:47:48.261Z,62.22
2017-10-18T12:48:54.021Z,62.47
2017-10-18T12:49:59.802Z,61.86
2017-10-18T12:51:06.337Z,62.59
2017-10-18T12:52:12.217Z,62.50
2017-10-18T12:53:18.231Z,62.00
2017-10-18T12:54:24.090Z,62.09
2017-10-18T12:55:30.748Z,62.20
2017-10-18T12:56:37.537Z,62.44
2017-10-18T12:57:43.485Z,62.49
2017-10-18T12:58:49.430Z,62.69
2017-10-18T12:59:56.094Z,62.95
2017-10-18T13:01:02.009Z,62.63
2017-10-18T13:02:07.897Z,62.49
2017-10-18T13:03:14.250Z,61.89
2017-10-18T13:04:20.133Z,62.34
2017-10-18T13:05:26.026Z,62.06
2017-10-18T13:06:31.938Z,62.09
2017-10-18T13:07:37.917Z,62.41
2017-10-18T13:08:43.778Z,62.75
2017-10-18T13:09:49.622Z,62.56
2017-10-18T13:10:55.494Z,62.13
2017-10-18T13:12:01.475Z,62.05
2017-10-18T13:13:08.072Z,61.79
2017-10-18T13:14:13.713Z,61.48
2017-10-18T13:15:19.652Z,61.31
2017-10-18T13:16:25.680Z,61.47
2017-10-18T13:17:31.575Z,61.55
2017-10-18T13:18:37.360Z,61.50
2017-10-18T13:19:44.034Z,61.82
2017-10-18T13:20:50.048Z,62.07
2017-10-18T13:21:55.916Z,62.57
2017-10-18T13:23:02.693Z,62.82
2017-10-18T13:24:08.821Z,62.91
2017-10-18T13:25:15.475Z,63.20
2017-10-18T13:26:22.204Z,63.22
2017-10-18T13:27:29.437Z,63.48
2017-10-18T13:28:36.127Z,63.41
2017-10-18T13:29:41.992Z,63.37
2017-10-18T13:30:47.928Z,62.88
2017-10-18T13:31:53.797Z,62.68
2017-10-18T13:33:01.201Z,62.97
2017-10-18T13:34:07.885Z,62.41
2017-10-18T13:35:13.809Z,61.90
2017-10-18T13:36:20.498Z,62.14
2017-10-18T13:37:26.293Z,62.37
2017-10-18T13:38:32.277Z,62.96
2017-10-18T13:39:38.160Z,63.57
2017-10-18T13:40:44.134Z,63.95
2017-10-18T13:41:50.860Z,63.78
2017-10-18T13:42:56.852Z,63.65
2017-10-18T13:44:03.569Z,63.53
2017-10-18T13:45:09.417Z,63.48
2017-10-18T13:46:15.244Z,63.80
2017-10-18T13:47:21.111Z,63.64
2017-10-18T13:48:28.566Z,63.40
2017-10-18T13:49:34.512Z,63.65
2017-10-18T13:50:40.648Z,63.57
2017-10-18T13:51:46.524Z,63.69
2017-10-18T13:52:53.157Z,63.91
2017-10-18T13:53:59.211Z,64.60
2017-10-18T13:55:04.979Z,64.74
2017-10-18T13:56:10.773Z,64.41
2017-10-18T13:57:17.385Z,63.90
2017-10-18T13:58:23.216Z,64.00
2017-10-18T13:59:29.157Z,63.94
2017-10-18T14:00:35.038Z,63.53
2017-10-18T14:01:41.710Z,62.88
2017-10-18T14:02:47.745Z,62.53
2017-10-18T14:03:54.435Z,63.00
2017-10-18T14:05:00.518Z,63.76
2017-10-18T14:06:06.560Z,63.96
2017-10-18T14:07:13.333Z,63.54
2017-10-18T14:08:19.073Z,63.40
2017-10-18T14:09:24.712Z,63.64
2017-10-18T14:10:31.454Z,63.67
2017-10-18T14:11:37.422Z,63.88
2017-10-18T14:12:44.495Z,63.50